sensor_id;sensor_type;location;lat;lon;timestamp;P1;durP1;ratioP1;P2;durP2;ratioP2
22715;SDS011;11525;51.152;4.456;2023-09-08T00:01:56;12.02;;;10.88;;
22715;SDS011;11525;51.152;4.456;2023-09-08T00:04:22;12.73;;;11.40;;
22715;SDS011;11525;51.152;4.456;2023-09-08T00:06:48;13.55;;;11.18;;
22715;SDS011;11525;51.152;4.456;2023-09-08T00:09:13;18.92;;;12.48;;
22715;SDS011;11525;51.152;4.456;2023-09-08T00:11:39;13.73;;;12.35;;
22715;SDS011;11525;51.152;4.456;2023-09-08T00:14:05;15.95;;;13.05;;
22715;SDS011;11525;51.152;4.456;2023-09-08T00:16:31;18.67;;;13.82;;
22715;SDS011;11525;51.152;4.456;2023-09-08T00:18:57;13.88;;;12.52;;
22715;SDS011;11525;51.152;4.456;2023-09-08T00:21:25;19.95;;;13.98;;
22715;SDS011;11525;51.152;4.456;2023-09-08T00:23:51;19.90;;;13.23;;
22715;SDS011;11525;51.152;4.456;2023-09-08T00:26:17;17.25;;;14.60;;
22715;SDS011;11525;51.152;4.456;2023-09-08T00:28:43;15.15;;;12.30;;
22715;SDS011;11525;51.152;4.456;2023-09-08T00:31:09;15.95;;;13.05;;
22715;SDS011;11525;51.152;4.456;2023-09-08T00:33:34;15.85;;;13.70;;
22715;SDS011;11525;51.152;4.456;2023-09-08T00:36:00;18.05;;;13.52;;
22715;SDS011;11525;51.152;4.456;2023-09-08T00:38:26;16.13;;;14.23;;
22715;SDS011;11525;51.152;4.456;2023-09-08T00:40:51;19.90;;;14.13;;
22715;SDS011;11525;51.152;4.456;2023-09-08T00:43:17;17.50;;;13.73;;
22715;SDS011;11525;51.152;4.456;2023-09-08T00:45:43;15.68;;;13.40;;
22715;SDS011;11525;51.152;4.456;2023-09-08T00:48:10;16.58;;;14.23;;
22715;SDS011;11525;51.152;4.456;2023-09-08T00:50:37;15.85;;;13.45;;
22715;SDS011;11525;51.152;4.456;2023-09-08T00:53:04;15.65;;;14.00;;
22715;SDS011;11525;51.152;4.456;2023-09-08T00:55:30;15.18;;;13.73;;
22715;SDS011;11525;51.152;4.456;2023-09-08T00:57:57;17.42;;;14.27;;
22715;SDS011;11525;51.152;4.456;2023-09-08T01:00:26;15.13;;;13.63;;
22715;SDS011;11525;51.152;4.456;2023-09-08T01:02:52;14.70;;;13.30;;
22715;SDS011;11525;51.152;4.456;2023-09-08T01:05:19;18.67;;;14.25;;
22715;SDS011;11525;51.152;4.456;2023-09-08T01:07:46;18.50;;;15.32;;
22715;SDS011;11525;51.152;4.456;2023-09-08T01:10:13;16.50;;;14.90;;
22715;SDS011;11525;51.152;4.456;2023-09-08T01:12:39;16.52;;;14.82;;
22715;SDS011;11525;51.152;4.456;2023-09-08T01:15:05;15.68;;;13.23;;
22715;SDS011;11525;51.152;4.456;2023-09-08T01:17:31;16.15;;;13.18;;
22715;SDS011;11525;51.152;4.456;2023-09-08T01:19:58;15.38;;;13.75;;
22715;SDS011;11525;51.152;4.456;2023-09-08T01:25:52;15.27;;;13.43;;
22715;SDS011;11525;51.152;4.456;2023-09-08T01:28:24;15.48;;;13.48;;
22715;SDS011;11525;51.152;4.456;2023-09-08T01:30:51;16.85;;;12.35;;
22715;SDS011;11525;51.152;4.456;2023-09-08T01:33:19;14.68;;;13.15;;
22715;SDS011;11525;51.152;4.456;2023-09-08T01:35:50;15.13;;;13.52;;
22715;SDS011;11525;51.152;4.456;2023-09-08T01:38:16;17.13;;;14.13;;
22715;SDS011;11525;51.152;4.456;2023-09-08T01:40:42;17.35;;;12.70;;
22715;SDS011;11525;51.152;4.456;2023-09-08T01:43:07;15.68;;;12.68;;
22715;SDS011;11525;51.152;4.456;2023-09-08T01:45:33;15.40;;;13.82;;
22715;SDS011;11525;51.152;4.456;2023-09-08T01:47:59;18.38;;;14.30;;
22715;SDS011;11525;51.152;4.456;2023-09-08T01:50:24;17.95;;;14.90;;
22715;SDS011;11525;51.152;4.456;2023-09-08T01:52:50;17.23;;;13.20;;
22715;SDS011;11525;51.152;4.456;2023-09-08T01:55:16;17.98;;;13.70;;
22715;SDS011;11525;51.152;4.456;2023-09-08T01:57:43;15.65;;;14.15;;
22715;SDS011;11525;51.152;4.456;2023-09-08T02:00:09;17.63;;;13.70;;
22715;SDS011;11525;51.152;4.456;2023-09-08T02:02:35;17.00;;;14.00;;
22715;SDS011;11525;51.152;4.456;2023-09-08T02:05:01;15.45;;;13.85;;
22715;SDS011;11525;51.152;4.456;2023-09-08T02:07:27;17.20;;;13.60;;
22715;SDS011;11525;51.152;4.456;2023-09-08T02:09:52;19.92;;;14.50;;
22715;SDS011;11525;51.152;4.456;2023-09-08T02:12:18;15.85;;;13.45;;
22715;SDS011;11525;51.152;4.456;2023-09-08T02:14:44;15.18;;;12.75;;
22715;SDS011;11525;51.152;4.456;2023-09-08T02:17:09;18.75;;;14.82;;
22715;SDS011;11525;51.152;4.456;2023-09-08T02:19:35;16.05;;;14.43;;
22715;SDS011;11525;51.152;4.456;2023-09-08T02:22:01;16.63;;;13.98;;
22715;SDS011;11525;51.152;4.456;2023-09-08T02:24:27;16.45;;;14.60;;
22715;SDS011;11525;51.152;4.456;2023-09-08T02:26:52;15.82;;;14.23;;
22715;SDS011;11525;51.152;4.456;2023-09-08T02:29:18;16.45;;;12.60;;
22715;SDS011;11525;51.152;4.456;2023-09-08T02:31:44;17.85;;;14.38;;
22715;SDS011;11525;51.152;4.456;2023-09-08T02:34:10;18.83;;;14.60;;
22715;SDS011;11525;51.152;4.456;2023-09-08T02:36:37;16.17;;;14.23;;
22715;SDS011;11525;51.152;4.456;2023-09-08T02:39:03;14.75;;;13.27;;
22715;SDS011;11525;51.152;4.456;2023-09-08T02:41:29;15.52;;;13.65;;
22715;SDS011;11525;51.152;4.456;2023-09-08T02:43:55;15.88;;;14.10;;
22715;SDS011;11525;51.152;4.456;2023-09-08T02:46:21;14.82;;;13.23;;
22715;SDS011;11525;51.152;4.456;2023-09-08T02:48:47;16.27;;;13.30;;
22715;SDS011;11525;51.152;4.456;2023-09-08T02:51:13;15.63;;;13.77;;
22715;SDS011;11525;51.152;4.456;2023-09-08T02:53:38;19.15;;;14.18;;
22715;SDS011;11525;51.152;4.456;2023-09-08T02:56:04;14.60;;;13.20;;
22715;SDS011;11525;51.152;4.456;2023-09-08T02:58:34;14.30;;;12.80;;
22715;SDS011;11525;51.152;4.456;2023-09-08T03:01:13;14.77;;;13.25;;
22715;SDS011;11525;51.152;4.456;2023-09-08T03:03:45;15.70;;;13.93;;
22715;SDS011;11525;51.152;4.456;2023-09-08T03:06:13;15.43;;;13.73;;
22715;SDS011;11525;51.152;4.456;2023-09-08T03:08:39;15.90;;;14.07;;
22715;SDS011;11525;51.152;4.456;2023-09-08T03:11:05;14.50;;;12.73;;
22715;SDS011;11525;51.152;4.456;2023-09-08T03:13:31;17.92;;;14.00;;
22715;SDS011;11525;51.152;4.456;2023-09-08T03:16:04;14.07;;;12.73;;
22715;SDS011;11525;51.152;4.456;2023-09-08T03:18:34;16.17;;;14.48;;
22715;SDS011;11525;51.152;4.456;2023-09-08T03:21:02;17.65;;;13.82;;
22715;SDS011;11525;51.152;4.456;2023-09-08T03:23:35;15.38;;;13.60;;
22715;SDS011;11525;51.152;4.456;2023-09-08T03:26:04;16.50;;;14.73;;
22715;SDS011;11525;51.152;4.456;2023-09-08T03:28:30;15.52;;;13.90;;
22715;SDS011;11525;51.152;4.456;2023-09-08T03:30:57;15.32;;;13.65;;
22715;SDS011;11525;51.152;4.456;2023-09-08T03:33:23;15.20;;;13.68;;
22715;SDS011;11525;51.152;4.456;2023-09-08T03:35:48;15.40;;;13.30;;
22715;SDS011;11525;51.152;4.456;2023-09-08T03:38:14;15.00;;;13.50;;
22715;SDS011;11525;51.152;4.456;2023-09-08T03:40:40;18.90;;;13.32;;
22715;SDS011;11525;51.152;4.456;2023-09-08T03:43:09;18.35;;;14.00;;
22715;SDS011;11525;51.152;4.456;2023-09-08T03:45:34;20.23;;;13.55;;
22715;SDS011;11525;51.152;4.456;2023-09-08T03:48:00;15.73;;;14.20;;
22715;SDS011;11525;51.152;4.456;2023-09-08T03:50:26;16.27;;;13.65;;
22715;SDS011;11525;51.152;4.456;2023-09-08T03:52:52;15.95;;;14.45;;
22715;SDS011;11525;51.152;4.456;2023-09-08T03:55:18;14.23;;;12.82;;
22715;SDS011;11525;51.152;4.456;2023-09-08T03:57:44;16.55;;;13.65;;
22715;SDS011;11525;51.152;4.456;2023-09-08T04:00:10;15.02;;;13.48;;
22715;SDS011;11525;51.152;4.456;2023-09-08T04:02:36;14.70;;;13.30;;
22715;SDS011;11525;51.152;4.456;2023-09-08T04:05:02;15.35;;;13.73;;
22715;SDS011;11525;51.152;4.456;2023-09-08T04:07:28;15.55;;;13.95;;
22715;SDS011;11525;51.152;4.456;2023-09-08T04:09:54;18.95;;;14.10;;
22715;SDS011;11525;51.152;4.456;2023-09-08T04:12:19;18.35;;;14.35;;
22715;SDS011;11525;51.152;4.456;2023-09-08T04:14:45;16.55;;;14.80;;
22715;SDS011;11525;51.152;4.456;2023-09-08T04:17:11;16.73;;;15.05;;
22715;SDS011;11525;51.152;4.456;2023-09-08T04:19:36;18.17;;;13.70;;
22715;SDS011;11525;51.152;4.456;2023-09-08T04:22:02;18.20;;;14.88;;
22715;SDS011;11525;51.152;4.456;2023-09-08T04:24:28;18.15;;;13.95;;
22715;SDS011;11525;51.152;4.456;2023-09-08T04:26:54;16.42;;;14.70;;
22715;SDS011;11525;51.152;4.456;2023-09-08T04:29:19;20.85;;;14.63;;
22715;SDS011;11525;51.152;4.456;2023-09-08T04:31:45;18.70;;;14.77;;
22715;SDS011;11525;51.152;4.456;2023-09-08T04:34:10;15.82;;;14.25;;
22715;SDS011;11525;51.152;4.456;2023-09-08T04:36:36;15.85;;;14.15;;
22715;SDS011;11525;51.152;4.456;2023-09-08T04:39:02;15.57;;;13.60;;
22715;SDS011;11525;51.152;4.456;2023-09-08T04:41:28;17.45;;;15.32;;
22715;SDS011;11525;51.152;4.456;2023-09-08T04:43:53;15.55;;;13.93;;
22715;SDS011;11525;51.152;4.456;2023-09-08T04:46:20;20.15;;;14.55;;
22715;SDS011;11525;51.152;4.456;2023-09-08T04:48:46;20.42;;;15.73;;
22715;SDS011;11525;51.152;4.456;2023-09-08T04:51:11;19.13;;;14.98;;
22715;SDS011;11525;51.152;4.456;2023-09-08T04:53:37;17.55;;;15.85;;
22715;SDS011;11525;51.152;4.456;2023-09-08T04:56:03;15.10;;;13.38;;
22715;SDS011;11525;51.152;4.456;2023-09-08T04:58:31;16.00;;;14.30;;
22715;SDS011;11525;51.152;4.456;2023-09-08T05:00:57;15.25;;;13.73;;
22715;SDS011;11525;51.152;4.456;2023-09-08T05:03:23;16.80;;;15.20;;
22715;SDS011;11525;51.152;4.456;2023-09-08T05:05:49;15.48;;;13.95;;
22715;SDS011;11525;51.152;4.456;2023-09-08T05:08:15;17.63;;;15.88;;
22715;SDS011;11525;51.152;4.456;2023-09-08T05:10:40;18.33;;;16.15;;
22715;SDS011;11525;51.152;4.456;2023-09-08T05:13:08;17.98;;;15.15;;
22715;SDS011;11525;51.152;4.456;2023-09-08T05:15:34;15.50;;;14.02;;
22715;SDS011;11525;51.152;4.456;2023-09-08T05:17:59;16.92;;;15.00;;
22715;SDS011;11525;51.152;4.456;2023-09-08T05:20:25;16.60;;;14.52;;
22715;SDS011;11525;51.152;4.456;2023-09-08T05:22:51;17.52;;;14.80;;
22715;SDS011;11525;51.152;4.456;2023-09-08T05:25:17;17.98;;;15.93;;
22715;SDS011;11525;51.152;4.456;2023-09-08T05:27:42;16.85;;;15.25;;
22715;SDS011;11525;51.152;4.456;2023-09-08T05:30:10;17.70;;;14.15;;
22715;SDS011;11525;51.152;4.456;2023-09-08T05:32:39;20.50;;;15.98;;
22715;SDS011;11525;51.152;4.456;2023-09-08T05:35:05;18.15;;;15.15;;
22715;SDS011;11525;51.152;4.456;2023-09-08T05:37:30;16.83;;;15.02;;
22715;SDS011;11525;51.152;4.456;2023-09-08T05:39:56;17.05;;;14.75;;
22715;SDS011;11525;51.152;4.456;2023-09-08T05:42:22;16.00;;;14.30;;
22715;SDS011;11525;51.152;4.456;2023-09-08T05:44:47;16.95;;;14.20;;
22715;SDS011;11525;51.152;4.456;2023-09-08T05:47:14;16.52;;;14.43;;
22715;SDS011;11525;51.152;4.456;2023-09-08T05:49:39;18.85;;;15.30;;
22715;SDS011;11525;51.152;4.456;2023-09-08T05:52:05;15.13;;;13.52;;
22715;SDS011;11525;51.152;4.456;2023-09-08T05:54:31;18.65;;;15.05;;
22715;SDS011;11525;51.152;4.456;2023-09-08T05:56:56;19.67;;;14.90;;
22715;SDS011;11525;51.152;4.456;2023-09-08T05:59:22;17.85;;;15.75;;
22715;SDS011;11525;51.152;4.456;2023-09-08T06:01:48;19.98;;;14.57;;
22715;SDS011;11525;51.152;4.456;2023-09-08T06:04:13;14.90;;;13.35;;
22715;SDS011;11525;51.152;4.456;2023-09-08T06:06:39;18.30;;;15.00;;
22715;SDS011;11525;51.152;4.456;2023-09-08T06:09:05;19.92;;;15.20;;
22715;SDS011;11525;51.152;4.456;2023-09-08T06:11:32;16.05;;;13.75;;
22715;SDS011;11525;51.152;4.456;2023-09-08T06:13:58;17.52;;;13.85;;
22715;SDS011;11525;51.152;4.456;2023-09-08T06:16:24;16.63;;;14.48;;
22715;SDS011;11525;51.152;4.456;2023-09-08T06:18:50;16.65;;;14.15;;
22715;SDS011;11525;51.152;4.456;2023-09-08T06:21:16;17.35;;;13.88;;
22715;SDS011;11525;51.152;4.456;2023-09-08T06:23:42;19.23;;;14.98;;
22715;SDS011;11525;51.152;4.456;2023-09-08T06:26:10;19.80;;;15.13;;
22715;SDS011;11525;51.152;4.456;2023-09-08T06:28:37;17.52;;;15.43;;
22715;SDS011;11525;51.152;4.456;2023-09-08T06:31:04;16.65;;;14.82;;
22715;SDS011;11525;51.152;4.456;2023-09-08T06:33:30;16.55;;;14.68;;
22715;SDS011;11525;51.152;4.456;2023-09-08T06:35:59;16.00;;;14.32;;
22715;SDS011;11525;51.152;4.456;2023-09-08T06:38:24;17.88;;;13.30;;
22715;SDS011;11525;51.152;4.456;2023-09-08T06:40:50;15.05;;;12.10;;
22715;SDS011;11525;51.152;4.456;2023-09-08T06:43:18;13.60;;;11.70;;
22715;SDS011;11525;51.152;4.456;2023-09-08T06:45:47;18.17;;;11.80;;
22715;SDS011;11525;51.152;4.456;2023-09-08T06:48:16;14.25;;;9.73;;
22715;SDS011;11525;51.152;4.456;2023-09-08T06:50:45;13.68;;;10.25;;
22715;SDS011;11525;51.152;4.456;2023-09-08T06:53:10;10.88;;;9.00;;
22715;SDS011;11525;51.152;4.456;2023-09-08T06:55:37;11.80;;;8.18;;
22715;SDS011;11525;51.152;4.456;2023-09-08T06:58:03;12.10;;;7.93;;
22715;SDS011;11525;51.152;4.456;2023-09-08T07:00:29;18.92;;;10.38;;
22715;SDS011;11525;51.152;4.456;2023-09-08T07:02:55;13.18;;;8.85;;
22715;SDS011;11525;51.152;4.456;2023-09-08T07:05:21;10.70;;;9.20;;
22715;SDS011;11525;51.152;4.456;2023-09-08T07:07:47;15.43;;;10.13;;
22715;SDS011;11525;51.152;4.456;2023-09-08T07:10:12;12.23;;;9.07;;
22715;SDS011;11525;51.152;4.456;2023-09-08T07:12:38;13.27;;;9.10;;
22715;SDS011;11525;51.152;4.456;2023-09-08T07:15:04;12.45;;;9.10;;
22715;SDS011;11525;51.152;4.456;2023-09-08T07:17:30;10.40;;;8.10;;
22715;SDS011;11525;51.152;4.456;2023-09-08T07:19:56;13.68;;;9.38;;
22715;SDS011;11525;51.152;4.456;2023-09-08T07:22:21;10.25;;;7.57;;
22715;SDS011;11525;51.152;4.456;2023-09-08T07:24:47;12.38;;;9.38;;
22715;SDS011;11525;51.152;4.456;2023-09-08T07:27:13;11.50;;;9.23;;
22715;SDS011;11525;51.152;4.456;2023-09-08T07:29:39;11.30;;;9.68;;
22715;SDS011;11525;51.152;4.456;2023-09-08T07:32:06;12.77;;;10.23;;
22715;SDS011;11525;51.152;4.456;2023-09-08T07:34:32;19.08;;;10.88;;
22715;SDS011;11525;51.152;4.456;2023-09-08T07:36:57;12.45;;;11.15;;
22715;SDS011;11525;51.152;4.456;2023-09-08T07:39:24;14.40;;;11.00;;
22715;SDS011;11525;51.152;4.456;2023-09-08T07:41:50;12.55;;;10.43;;
22715;SDS011;11525;51.152;4.456;2023-09-08T07:44:15;15.52;;;11.40;;
22715;SDS011;11525;51.152;4.456;2023-09-08T07:46:42;14.90;;;10.80;;
22715;SDS011;11525;51.152;4.456;2023-09-08T07:49:09;12.15;;;10.88;;
22715;SDS011;11525;51.152;4.456;2023-09-08T07:51:34;12.25;;;10.95;;
22715;SDS011;11525;51.152;4.456;2023-09-08T07:54:00;12.10;;;10.77;;
22715;SDS011;11525;51.152;4.456;2023-09-08T07:56:28;12.98;;;9.45;;
22715;SDS011;11525;51.152;4.456;2023-09-08T07:58:54;16.83;;;11.55;;
22715;SDS011;11525;51.152;4.456;2023-09-08T08:01:19;17.45;;;9.52;;
22715;SDS011;11525;51.152;4.456;2023-09-08T08:03:45;11.45;;;9.25;;
22715;SDS011;11525;51.152;4.456;2023-09-08T08:06:10;9.10;;;7.47;;
22715;SDS011;11525;51.152;4.456;2023-09-08T08:08:36;10.25;;;8.68;;
22715;SDS011;11525;51.152;4.456;2023-09-08T08:11:08;8.52;;;6.68;;
22715;SDS011;11525;51.152;4.456;2023-09-08T08:13:37;8.07;;;6.90;;
22715;SDS011;11525;51.152;4.456;2023-09-08T08:16:03;11.32;;;7.18;;
22715;SDS011;11525;51.152;4.456;2023-09-08T08:18:29;10.63;;;7.38;;
22715;SDS011;11525;51.152;4.456;2023-09-08T08:20:54;7.40;;;6.65;;
22715;SDS011;11525;51.152;4.456;2023-09-08T08:23:20;7.68;;;5.40;;
22715;SDS011;11525;51.152;4.456;2023-09-08T08:25:46;8.75;;;6.07;;
22715;SDS011;11525;51.152;4.456;2023-09-08T08:28:13;8.30;;;5.63;;
22715;SDS011;11525;51.152;4.456;2023-09-08T08:30:39;9.75;;;5.97;;
22715;SDS011;11525;51.152;4.456;2023-09-08T08:33:05;8.13;;;5.68;;
22715;SDS011;11525;51.152;4.456;2023-09-08T08:35:31;7.68;;;5.13;;
22715;SDS011;11525;51.152;4.456;2023-09-08T08:38:00;8.75;;;5.88;;
22715;SDS011;11525;51.152;4.456;2023-09-08T08:40:25;10.75;;;6.13;;
22715;SDS011;11525;51.152;4.456;2023-09-08T08:42:56;7.25;;;4.80;;
22715;SDS011;11525;51.152;4.456;2023-09-08T08:45:23;11.50;;;6.22;;
22715;SDS011;11525;51.152;4.456;2023-09-08T08:47:52;9.02;;;6.07;;
22715;SDS011;11525;51.152;4.456;2023-09-08T08:50:19;9.25;;;5.88;;
22715;SDS011;11525;51.152;4.456;2023-09-08T08:52:45;6.00;;;5.15;;
22715;SDS011;11525;51.152;4.456;2023-09-08T08:55:11;9.48;;;5.10;;
22715;SDS011;11525;51.152;4.456;2023-09-08T08:57:39;9.00;;;5.10;;
22715;SDS011;11525;51.152;4.456;2023-09-08T09:00:09;6.00;;;4.50;;
22715;SDS011;11525;51.152;4.456;2023-09-08T09:02:40;6.68;;;4.57;;
22715;SDS011;11525;51.152;4.456;2023-09-08T09:05:09;13.18;;;5.95;;
22715;SDS011;11525;51.152;4.456;2023-09-08T09:07:36;9.95;;;5.57;;
22715;SDS011;11525;51.152;4.456;2023-09-08T09:10:03;8.40;;;5.57;;
22715;SDS011;11525;51.152;4.456;2023-09-08T09:12:29;9.20;;;5.00;;
22715;SDS011;11525;51.152;4.456;2023-09-08T09:14:56;8.23;;;5.07;;
22715;SDS011;11525;51.152;4.456;2023-09-08T09:17:24;7.93;;;5.32;;
22715;SDS011;11525;51.152;4.456;2023-09-08T09:19:50;9.52;;;5.15;;
22715;SDS011;11525;51.152;4.456;2023-09-08T09:22:19;7.70;;;5.60;;
22715;SDS011;11525;51.152;4.456;2023-09-08T09:24:47;10.27;;;5.03;;
22715;SDS011;11525;51.152;4.456;2023-09-08T09:27:13;9.57;;;4.25;;
22715;SDS011;11525;51.152;4.456;2023-09-08T09:32:11;8.70;;;5.43;;
22715;SDS011;11525;51.152;4.456;2023-09-08T09:34:58;7.25;;;4.88;;
22715;SDS011;11525;51.152;4.456;2023-09-08T09:37:26;7.88;;;5.78;;
22715;SDS011;11525;51.152;4.456;2023-09-08T09:39:52;7.25;;;4.60;;
22715;SDS011;11525;51.152;4.456;2023-09-08T09:42:24;9.02;;;5.20;;
22715;SDS011;11525;51.152;4.456;2023-09-08T09:44:52;8.20;;;4.65;;
22715;SDS011;11525;51.152;4.456;2023-09-08T09:47:18;8.68;;;5.07;;
22715;SDS011;11525;51.152;4.456;2023-09-08T09:49:45;8.82;;;5.10;;
22715;SDS011;11525;51.152;4.456;2023-09-08T09:52:12;9.63;;;4.90;;
22715;SDS011;11525;51.152;4.456;2023-09-08T09:54:40;6.88;;;4.78;;
22715;SDS011;11525;51.152;4.456;2023-09-08T09:57:07;6.80;;;4.45;;
22715;SDS011;11525;51.152;4.456;2023-09-08T09:59:41;9.48;;;4.65;;
22715;SDS011;11525;51.152;4.456;2023-09-08T10:02:11;6.93;;;4.63;;
22715;SDS011;11525;51.152;4.456;2023-09-08T10:04:39;6.88;;;4.45;;
22715;SDS011;11525;51.152;4.456;2023-09-08T10:07:06;6.40;;;4.47;;
22715;SDS011;11525;51.152;4.456;2023-09-08T10:09:32;6.88;;;5.30;;
22715;SDS011;11525;51.152;4.456;2023-09-08T10:12:00;6.13;;;4.85;;
22715;SDS011;11525;51.152;4.456;2023-09-08T10:14:31;9.50;;;4.75;;
22715;SDS011;11525;51.152;4.456;2023-09-08T10:17:00;8.63;;;4.50;;
22715;SDS011;11525;51.152;4.456;2023-09-08T10:19:27;10.10;;;4.88;;
22715;SDS011;11525;51.152;4.456;2023-09-08T10:21:59;9.85;;;5.70;;
22715;SDS011;11525;51.152;4.456;2023-09-08T10:24:29;7.20;;;4.40;;
22715;SDS011;11525;51.152;4.456;2023-09-08T10:29:38;8.18;;;5.28;;
22715;SDS011;11525;51.152;4.456;2023-09-08T10:32:04;6.32;;;4.60;;
22715;SDS011;11525;51.152;4.456;2023-09-08T10:34:32;5.22;;;3.97;;
22715;SDS011;11525;51.152;4.456;2023-09-08T10:36:59;9.15;;;4.30;;
22715;SDS011;11525;51.152;4.456;2023-09-08T10:39:28;11.85;;;4.15;;
22715;SDS011;11525;51.152;4.456;2023-09-08T10:47:12;5.32;;;4.28;;
22715;SDS011;11525;51.152;4.456;2023-09-08T10:49:38;7.63;;;4.60;;
22715;SDS011;11525;51.152;4.456;2023-09-08T10:52:07;8.02;;;4.68;;
22715;SDS011;11525;51.152;4.456;2023-09-08T10:54:40;8.85;;;4.50;;
22715;SDS011;11525;51.152;4.456;2023-09-08T10:57:23;6.70;;;4.57;;
22715;SDS011;11525;51.152;4.456;2023-09-08T10:59:53;9.90;;;4.80;;
22715;SDS011;11525;51.152;4.456;2023-09-08T11:05:16;6.53;;;5.20;;
22715;SDS011;11525;51.152;4.456;2023-09-08T11:07:44;8.38;;;5.60;;
22715;SDS011;11525;51.152;4.456;2023-09-08T11:10:11;7.53;;;4.90;;
22715;SDS011;11525;51.152;4.456;2023-09-08T11:12:37;9.80;;;5.35;;
22715;SDS011;11525;51.152;4.456;2023-09-08T11:15:04;10.43;;;6.10;;
22715;SDS011;11525;51.152;4.456;2023-09-08T11:17:33;8.90;;;5.68;;
22715;SDS011;11525;51.152;4.456;2023-09-08T11:20:00;13.55;;;6.05;;
22715;SDS011;11525;51.152;4.456;2023-09-08T11:22:33;7.25;;;5.68;;
22715;SDS011;11525;51.152;4.456;2023-09-08T11:25:02;9.77;;;5.90;;
22715;SDS011;11525;51.152;4.456;2023-09-08T11:27:31;8.85;;;5.63;;
22715;SDS011;11525;51.152;4.456;2023-09-08T11:29:57;9.13;;;6.05;;
22715;SDS011;11525;51.152;4.456;2023-09-08T11:32:32;6.45;;;5.35;;
22715;SDS011;11525;51.152;4.456;2023-09-08T11:35:05;7.65;;;5.13;;
22715;SDS011;11525;51.152;4.456;2023-09-08T11:37:34;7.88;;;5.45;;
22715;SDS011;11525;51.152;4.456;2023-09-08T11:40:04;9.05;;;5.20;;
22715;SDS011;11525;51.152;4.456;2023-09-08T11:42:40;10.57;;;5.93;;
22715;SDS011;11525;51.152;4.456;2023-09-08T11:45:15;8.52;;;5.80;;
22715;SDS011;11525;51.152;4.456;2023-09-08T11:47:48;10.25;;;5.45;;
22715;SDS011;11525;51.152;4.456;2023-09-08T11:50:14;7.75;;;5.25;;
22715;SDS011;11525;51.152;4.456;2023-09-08T11:52:46;8.15;;;5.07;;
22715;SDS011;11525;51.152;4.456;2023-09-08T11:55:13;9.48;;;4.72;;
22715;SDS011;11525;51.152;4.456;2023-09-08T11:57:40;5.22;;;4.72;;
22715;SDS011;11525;51.152;4.456;2023-09-08T12:00:06;7.40;;;5.30;;
22715;SDS011;11525;51.152;4.456;2023-09-08T12:02:36;10.10;;;5.07;;
22715;SDS011;11525;51.152;4.456;2023-09-08T12:05:02;11.43;;;4.50;;
22715;SDS011;11525;51.152;4.456;2023-09-08T12:07:29;6.30;;;4.30;;
22715;SDS011;11525;51.152;4.456;2023-09-08T12:09:55;8.98;;;4.10;;
22715;SDS011;11525;51.152;4.456;2023-09-08T12:12:20;10.18;;;4.53;;
22715;SDS011;11525;51.152;4.456;2023-09-08T12:14:46;8.38;;;4.05;;
22715;SDS011;11525;51.152;4.456;2023-09-08T12:17:12;7.28;;;4.38;;
22715;SDS011;11525;51.152;4.456;2023-09-08T12:19:42;12.25;;;4.03;;
22715;SDS011;11525;51.152;4.456;2023-09-08T12:22:07;5.55;;;4.60;;
22715;SDS011;11525;51.152;4.456;2023-09-08T12:27:21;11.77;;;5.22;;
22715;SDS011;11525;51.152;4.456;2023-09-08T12:32:26;10.75;;;4.60;;
22715;SDS011;11525;51.152;4.456;2023-09-08T12:34:54;5.72;;;4.47;;
22715;SDS011;11525;51.152;4.456;2023-09-08T12:37:23;9.35;;;4.40;;
22715;SDS011;11525;51.152;4.456;2023-09-08T12:39:54;11.98;;;4.95;;
22715;SDS011;11525;51.152;4.456;2023-09-08T12:42:19;11.93;;;4.90;;
22715;SDS011;11525;51.152;4.456;2023-09-08T12:44:46;5.65;;;4.10;;
22715;SDS011;11525;51.152;4.456;2023-09-08T12:47:12;9.55;;;5.10;;
22715;SDS011;11525;51.152;4.456;2023-09-08T12:49:38;9.80;;;4.80;;
22715;SDS011;11525;51.152;4.456;2023-09-08T12:52:04;6.15;;;4.55;;
22715;SDS011;11525;51.152;4.456;2023-09-08T12:54:30;12.55;;;5.13;;
22715;SDS011;11525;51.152;4.456;2023-09-08T12:56:56;9.55;;;4.50;;
22715;SDS011;11525;51.152;4.456;2023-09-08T12:59:21;8.23;;;4.78;;
22715;SDS011;11525;51.152;4.456;2023-09-08T13:01:47;7.97;;;4.20;;
22715;SDS011;11525;51.152;4.456;2023-09-08T13:04:13;9.45;;;5.35;;
22715;SDS011;11525;51.152;4.456;2023-09-08T13:06:38;9.70;;;4.45;;
22715;SDS011;11525;51.152;4.456;2023-09-08T13:09:04;7.60;;;4.45;;
22715;SDS011;11525;51.152;4.456;2023-09-08T13:11:30;12.98;;;4.72;;
22715;SDS011;11525;51.152;4.456;2023-09-08T13:13:56;8.95;;;4.57;;
22715;SDS011;11525;51.152;4.456;2023-09-08T13:16:22;13.55;;;4.68;;
22715;SDS011;11525;51.152;4.456;2023-09-08T13:18:47;11.85;;;4.78;;
22715;SDS011;11525;51.152;4.456;2023-09-08T13:21:14;8.65;;;4.53;;
22715;SDS011;11525;51.152;4.456;2023-09-08T13:23:40;10.90;;;4.72;;
22715;SDS011;11525;51.152;4.456;2023-09-08T13:26:05;5.78;;;4.88;;
22715;SDS011;11525;51.152;4.456;2023-09-08T13:28:31;10.27;;;4.25;;
22715;SDS011;11525;51.152;4.456;2023-09-08T13:30:57;9.30;;;4.88;;
22715;SDS011;11525;51.152;4.456;2023-09-08T13:33:23;9.70;;;4.65;;
22715;SDS011;11525;51.152;4.456;2023-09-08T13:35:48;9.18;;;4.40;;
22715;SDS011;11525;51.152;4.456;2023-09-08T13:38:14;10.40;;;3.83;;
22715;SDS011;11525;51.152;4.456;2023-09-08T13:40:40;8.52;;;4.25;;
22715;SDS011;11525;51.152;4.456;2023-09-08T13:43:06;10.98;;;4.13;;
22715;SDS011;11525;51.152;4.456;2023-09-08T13:45:32;7.70;;;3.63;;
22715;SDS011;11525;51.152;4.456;2023-09-08T13:47:58;9.23;;;4.00;;
22715;SDS011;11525;51.152;4.456;2023-09-08T13:50:23;9.00;;;4.25;;
22715;SDS011;11525;51.152;4.456;2023-09-08T13:52:49;6.47;;;3.67;;
22715;SDS011;11525;51.152;4.456;2023-09-08T13:55:15;9.95;;;4.35;;
22715;SDS011;11525;51.152;4.456;2023-09-08T13:57:40;6.78;;;4.10;;
22715;SDS011;11525;51.152;4.456;2023-09-08T14:00:06;18.73;;;4.03;;
22715;SDS011;11525;51.152;4.456;2023-09-08T14:02:33;9.45;;;3.95;;
22715;SDS011;11525;51.152;4.456;2023-09-08T14:04:59;7.07;;;3.80;;
22715;SDS011;11525;51.152;4.456;2023-09-08T14:07:25;8.00;;;4.30;;
22715;SDS011;11525;51.152;4.456;2023-09-08T14:09:51;8.90;;;3.92;;
22715;SDS011;11525;51.152;4.456;2023-09-08T14:12:17;7.22;;;3.67;;
22715;SDS011;11525;51.152;4.456;2023-09-08T14:14:43;8.82;;;4.00;;
22715;SDS011;11525;51.152;4.456;2023-09-08T14:17:08;12.20;;;4.10;;
22715;SDS011;11525;51.152;4.456;2023-09-08T14:19:34;11.30;;;3.95;;
22715;SDS011;11525;51.152;4.456;2023-09-08T14:22:00;9.27;;;3.92;;
22715;SDS011;11525;51.152;4.456;2023-09-08T14:24:25;8.02;;;3.97;;
22715;SDS011;11525;51.152;4.456;2023-09-08T14:26:51;14.95;;;4.68;;
22715;SDS011;11525;51.152;4.456;2023-09-08T14:29:17;10.25;;;4.00;;
22715;SDS011;11525;51.152;4.456;2023-09-08T14:31:43;7.28;;;3.80;;
22715;SDS011;11525;51.152;4.456;2023-09-08T14:34:09;9.30;;;4.80;;
22715;SDS011;11525;51.152;4.456;2023-09-08T14:36:34;9.75;;;3.85;;
22715;SDS011;11525;51.152;4.456;2023-09-08T14:39:00;15.00;;;4.20;;
22715;SDS011;11525;51.152;4.456;2023-09-08T14:41:26;10.75;;;4.07;;
22715;SDS011;11525;51.152;4.456;2023-09-08T14:43:52;6.38;;;4.55;;
22715;SDS011;11525;51.152;4.456;2023-09-08T14:46:17;9.98;;;4.45;;
22715;SDS011;11525;51.152;4.456;2023-09-08T14:48:44;9.43;;;4.55;;
22715;SDS011;11525;51.152;4.456;2023-09-08T14:51:10;15.23;;;4.65;;
22715;SDS011;11525;51.152;4.456;2023-09-08T14:53:35;8.05;;;4.40;;